Time;durP1;ratioP1;P1;durP2;ratioP2;P2;SDS_P1;SDS_P2;PMS_P1;PMS_P2;Temp;Humidity;BMP_temperature;BMP_pressure;BME280_temperature;BME280_humidity;BME280_pressure;Samples;Min_cycle;Max_cycle;Signal;HPM_P1;HPM_P2
2022/10/08 00:01:32;;;;;;;14.07;2.47;;;15.00;94.60;;;;;;5054461;28;20540;-85
2022/10/08 00:03:57;;;;;;;8.25;2.92;;;15.00;94.70;;;;;;5054240;28;20040;-85
2022/10/08 00:06:32;;;;;;;7.72;2.13;;;15.00;94.80;;;;;;5055287;28;20025;-85
2022/10/08 00:09:01;;;;;;;12.45;2.47;;;15.00;94.90;;;;;;5055352;28;20075;-85
2022/10/08 00:11:29;;;;;;;13.23;2.90;;;15.00;94.90;;;;;;5054052;28;20513;-85
2022/10/08 00:13:55;;;;;;;10.63;2.88;;;15.00;95.00;;;;;;5054039;28;20021;-84
2022/10/08 00:16:30;;;;;;;10.93;2.45;;;15.00;95.00;;;;;;5054012;28;20473;-85
2022/10/08 00:19:02;;;;;;;9.18;2.47;;;15.00;95.10;;;;;;5053857;28;20025;-85
2022/10/08 00:21:31;;;;;;;10.10;2.38;;;15.00;95.20;;;;;;5052916;28;20028;-85
2022/10/08 00:23:58;;;;;;;14.10;2.70;;;15.00;95.30;;;;;;5054982;28;20021;-85
2022/10/08 00:26:26;;;;;;;8.75;2.30;;;15.10;95.60;;;;;;5053803;28;20029;-85
2022/10/08 00:28:54;;;;;;;10.45;2.47;;;15.10;95.40;;;;;;5054913;28;20028;-85
2022/10/08 00:31:32;;;;;;;11.75;2.80;;;15.10;95.50;;;;;;5053573;28;20021;-85
2022/10/08 00:34:00;;;;;;;9.90;2.38;;;15.10;95.60;;;;;;5054863;28;20162;-85
2022/10/08 00:36:30;;;;;;;9.68;2.92;;;15.10;95.70;;;;;;5054724;28;20025;-85
2022/10/08 00:39:07;;;;;;;10.25;2.40;;;15.10;95.70;;;;;;5053609;28;20059;-85
2022/10/08 00:41:36;;;;;;;9.95;2.72;;;15.10;95.80;;;;;;5053458;28;20025;-85
2022/10/08 00:44:22;;;;;;;8.57;2.58;;;15.10;95.90;;;;;;5053287;28;20373;-85
2022/10/08 00:46:49;;;;;;;8.63;2.65;;;15.10;95.90;;;;;;5054374;28;20083;-84
2022/10/08 00:49:20;;;;;;;8.40;2.63;;;15.10;96.00;;;;;;5037136;28;20433;-84
2022/10/08 00:51:53;;;;;;;14.20;2.65;;;15.20;96.10;;;;;;5053973;28;20439;-84
2022/10/08 00:54:20;;;;;;;10.10;2.58;;;15.20;96.20;;;;;;5053536;28;20045;-84
2022/10/08 00:56:52;;;;;;;15.15;2.75;;;15.20;96.20;;;;;;5054352;28;20532;-84
2022/10/08 00:59:19;;;;;;;14.52;3.63;;;15.20;96.30;;;;;;5092140;28;20422;-84
2022/10/08 01:01:45;;;;;;;8.05;2.92;;;15.20;96.50;;;;;;5094764;28;20416;-84
2022/10/08 01:04:12;;;;;;;14.02;2.88;;;15.20;96.80;;;;;;5076337;28;20024;-83
2022/10/08 01:06:47;;;;;;;12.80;4.25;;;15.20;96.90;;;;;;5076379;28;20047;-84
2022/10/08 01:09:18;;;;;;;13.43;3.10;;;15.20;97.30;;;;;;5076208;28;20034;-85
2022/10/08 01:11:43;;;;;;;;;;;15.20;97.50;;;;;;5094807;28;20024;-84
2022/10/08 01:14:33;;;;;;;10.82;3.08;;;15.20;97.60;;;;;;5076161;28;19961;-84
2022/10/08 01:17:23;;;;;;;12.80;3.60;;;15.20;97.70;;;;;;5076002;28;20428;-84
2022/10/08 01:20:11;;;;;;;9.82;3.28;;;15.10;97.90;;;;;;5076107;28;20023;-85
2022/10/08 01:23:21;;;;;;;9.13;3.28;;;15.10;98.10;;;;;;5076030;28;20032;-85
2022/10/08 01:25:53;;;;;;;9.13;3.20;;;15.10;98.60;;;;;;4976262;28;20038;-84
2022/10/08 01:28:31;;;;;;;9.98;3.30;;;15.10;98.80;;;;;;5083401;28;20084;-84
2022/10/08 01:31:07;;;;;;;10.32;3.30;;;15.10;99.10;;;;;;5094626;28;20028;-84
2022/10/08 01:33:41;;;;;;;13.88;3.45;;;15.00;99.40;;;;;;5094456;28;20035;-84
2022/10/08 01:36:10;;;;;;;9.20;3.50;;;15.00;99.70;;;;;;5075859;28;20020;-84
2022/10/08 01:38:40;;;;;;;9.93;3.13;;;15.00;99.90;;;;;;5075715;28;20016;-84
2022/10/08 01:41:08;;;;;;;12.63;3.65;;;15.00;99.90;;;;;;5075747;28;20024;-84
2022/10/08 01:43:39;;;;;;;10.45;3.50;;;15.00;99.90;;;;;;5075684;28;20020;-85
2022/10/08 01:46:18;;;;;;;7.95;2.97;;;14.90;99.90;;;;;;5075857;28;20393;-86
2022/10/08 01:48:47;;;;;;;11.13;3.95;;;14.90;99.90;;;;;;5075732;28;20030;-86
2022/10/08 01:51:22;;;;;;;12.23;3.47;;;14.90;99.90;;;;;;5093786;28;20487;-85
2022/10/08 01:53:50;;;;;;;12.48;4.10;;;14.90;99.90;;;;;;5075688;28;20017;-85
2022/10/08 01:56:26;;;;;;;15.10;4.10;;;14.90;99.90;;;;;;5093652;28;20075;-85
2022/10/08 01:59:05;;;;;;;13.18;3.70;;;14.90;99.90;;;;;;5093539;28;20493;-85
2022/10/08 02:01:59;;;;;;;10.57;4.00;;;14.80;99.90;;;;;;5075550;28;20027;-85
2022/10/08 02:04:33;;;;;;;9.88;4.70;;;14.80;99.90;;;;;;5075561;28;20028;-85
2022/10/08 02:07:06;;;;;;;12.80;5.05;;;14.80;99.90;;;;;;5075654;28;20039;-86
2022/10/08 02:09:35;;;;;;;11.73;5.18;;;14.80;99.90;;;;;;5093582;28;20355;-85
2022/10/08 02:12:01;;;;;;;12.18;4.80;;;14.80;99.90;;;;;;5093567;28;20024;-86
2022/10/08 02:14:28;;;;;;;10.77;4.55;;;14.80;99.90;;;;;;5093688;28;20063;-85
2022/10/08 02:17:04;;;;;;;14.32;5.95;;;14.80;99.90;;;;;;5075247;28;20028;-85
2022/10/08 02:19:36;;;;;;;12.65;5.18;;;14.80;99.90;;;;;;5094044;28;20032;-85
2022/10/08 02:22:05;;;;;;;11.18;5.15;;;14.80;99.90;;;;;;5075428;28;20085;-85
2022/10/08 02:24:42;;;;;;;16.00;5.32;;;14.80;99.90;;;;;;5093522;28;20086;-85
2022/10/08 02:27:10;;;;;;;11.88;5.03;;;14.80;99.90;;;;;;5093770;28;20398;-85
2022/10/08 02:33:14;;;;;;;14.77;5.35;;;14.80;99.90;;;;;;5093618;28;20161;-85
2022/10/08 02:35:50;;;;;;;11.45;4.60;;;14.70;99.90;;;;;;5033203;28;20040;-85
2022/10/08 02:38:33;;;;;;;13.07;5.00;;;14.70;99.90;;;;;;5093543;28;20153;-85
2022/10/08 02:41:03;;;;;;;12.07;5.13;;;14.70;99.90;;;;;;5093276;28;20044;-85
2022/10/08 02:43:32;;;;;;;16.00;5.78;;;14.70;99.90;;;;;;5075612;28;20012;-85
2022/10/08 02:46:03;;;;;;;24.23;5.32;;;14.70;99.90;;;;;;5097035;28;20020;-85
2022/10/08 02:48:31;;;;;;;10.02;4.50;;;14.70;99.90;;;;;;5097291;28;20047;-85
2022/10/08 02:51:03;;;;;;;13.63;6.32;;;14.70;99.90;;;;;;5078889;28;20016;-84
2022/10/08 02:53:29;;;;;;;13.35;5.53;;;14.60;99.90;;;;;;5078771;28;20031;-85
2022/10/08 02:56:19;;;;;;;10.45;4.65;;;14.60;99.90;;;;;;5078825;28;20102;-85
2022/10/08 02:58:45;;;;;;;12.33;5.23;;;14.60;99.90;;;;;;5060786;28;20037;-85
2022/10/08 03:01:52;;;;;;;9.30;4.35;;;14.60;99.90;;;;;;5055322;28;20044;-85
2022/10/08 03:04:35;;;;;;;14.32;4.75;;;14.60;99.90;;;;;;5054296;28;20063;-85
2022/10/08 03:07:02;;;;;;;11.65;4.82;;;14.60;99.90;;;;;;5056530;28;20036;-85
2022/10/08 03:09:38;;;;;;;12.40;4.57;;;14.60;99.90;;;;;;5055557;28;20500;-85
2022/10/08 03:12:05;;;;;;;11.45;4.32;;;14.50;99.90;;;;;;5056557;28;20028;-86
2022/10/08 03:14:36;;;;;;;12.35;4.68;;;14.50;99.90;;;;;;5056843;28;20024;-85
2022/10/08 03:17:02;;;;;;;12.15;4.70;;;14.50;99.90;;;;;;5054987;28;20047;-85
2022/10/08 03:19:28;;;;;;;14.00;5.03;;;14.50;99.90;;;;;;5054920;28;20455;-85
2022/10/08 03:21:55;;;;;;;11.27;4.78;;;14.50;99.90;;;;;;5054958;28;20021;-85
2022/10/08 03:24:21;;;;;;;13.18;4.88;;;14.40;99.90;;;;;;5054987;28;20378;-85
2022/10/08 03:26:46;;;;;;;10.35;4.40;;;14.40;99.90;;;;;;5054777;28;20017;-85
2022/10/08 03:29:12;;;;;;;12.13;4.40;;;14.40;99.90;;;;;;5021671;28;20116;-85
2022/10/08 03:31:38;;;;;;;14.70;4.07;;;14.40;99.90;;;;;;5054610;28;20060;-85
2022/10/08 03:34:04;;;;;;;12.80;4.40;;;14.40;99.90;;;;;;5021539;28;20053;-85
2022/10/08 03:36:30;;;;;;;11.95;3.85;;;14.40;99.90;;;;;;5054679;28;20025;-85
2022/10/08 03:38:56;;;;;;;11.75;4.05;;;14.40;99.90;;;;;;5054802;28;20047;-85
2022/10/08 03:41:21;;;;;;;12.52;5.03;;;14.40;99.90;;;;;;5056419;28;20108;-85
2022/10/08 03:43:47;;;;;;;14.02;4.15;;;14.30;99.90;;;;;;5054590;28;20115;-85
2022/10/08 03:46:14;;;;;;;9.90;4.15;;;14.30;99.90;;;;;;5054567;28;20421;-85
2022/10/08 03:48:40;;;;;;;10.00;3.85;;;14.30;99.90;;;;;;5054417;28;20059;-85
2022/10/08 03:51:11;;;;;;;14.27;5.03;;;14.30;99.90;;;;;;5023235;28;20025;-85
2022/10/08 03:53:39;;;;;;;11.80;4.50;;;14.30;99.90;;;;;;5056268;28;20032;-85
2022/10/08 03:56:08;;;;;;;9.48;3.85;;;14.20;99.90;;;;;;5056799;28;20112;-85
2022/10/08 03:58:34;;;;;;;7.47;3.65;;;14.30;99.90;;;;;;5080855;28;20486;-85
2022/10/08 04:01:03;;;;;;;12.00;4.85;;;14.30;99.90;;;;;;5078405;28;20039;-85
2022/10/08 04:03:30;;;;;;;10.40;4.10;;;14.20;99.90;;;;;;5077537;28;20023;-85
2022/10/08 04:05:56;;;;;;;14.75;5.03;;;14.20;99.90;;;;;;5077434;28;20144;-84
2022/10/08 04:08:22;;;;;;;11.18;4.38;;;14.20;99.90;;;;;;5095757;28;20120;-85
2022/10/08 04:10:48;;;;;;;9.95;4.40;;;14.20;99.90;;;;;;5077348;28;20484;-85
2022/10/08 04:13:14;;;;;;;11.63;4.10;;;14.20;99.90;;;;;;5095435;28;20035;-85
2022/10/08 04:15:41;;;;;;;16.95;5.18;;;14.20;99.90;;;;;;5060594;28;20028;-84
2022/10/08 04:18:06;;;;;;;10.18;4.38;;;14.20;99.90;;;;;;5077167;28;20077;-84
2022/10/08 04:20:33;;;;;;;10.80;4.15;;;14.20;99.90;;;;;;5095263;28;20024;-84
2022/10/08 04:22:58;;;;;;;12.32;4.57;;;14.20;99.90;;;;;;5077091;28;20031;-84
2022/10/08 17:31:18;;;;;;;6.65;1.67;;;16.40;90.00;;;;;;5049103;27;1986800;-88
2022/10/08 17:33:43;;;;;;;7.15;1.63;;;16.20;90.60;;;;;;5073665;28;20079;-88
2022/10/08 17:36:20;;;;;;;8.02;1.88;;;16.30;91.20;;;;;;5056732;28;20033;-86
2022/10/08 17:38:47;;;;;;;5.47;1.75;;;16.30;91.10;;;;;;5074377;28;20058;-89
2022/10/08 17:41:18;;;;;;;6.47;1.50;;;16.40;91.00;;;;;;5073613;28;20021;-89
2022/10/08 17:43:44;;;;;;;;;;;16.50;90.90;;;;;;5074023;28;20124;-89
2022/10/08 17:46:14;;;;;;;6.38;1.60;;;16.60;90.20;;;;;;5073752;28;20326;-89
2022/10/08 17:48:41;;;;;;;8.32;1.88;;;16.60;90.50;;;;;;5091415;28;20036;-90
2022/10/08 17:51:09;;;;;;;10.55;1.70;;;16.60;90.40;;;;;;5056575;28;20036;-89
2022/10/08 17:53:35;;;;;;;11.48;2.10;;;16.70;90.50;;;;;;5072754;28;20051;-90
2022/10/08 17:56:04;;;;;;;7.85;2.30;;;16.70;90.50;;;;;;5056671;28;20121;-89
2022/10/08 17:58:30;;;;;;;10.50;3.40;;;16.70;90.50;;;;;;5072993;28;20518;-88
2022/10/08 18:01:25;;;;;;;7.63;2.15;;;16.70;90.50;;;;;;5074764;28;20033;-91
2022/10/08 18:03:56;;;;;;;7.20;2.20;;;16.70;90.40;;;;;;5054906;28;20040;-89
2022/10/08 18:06:24;;;;;;;9.43;2.30;;;16.70;90.60;;;;;;5072952;28;20025;-91
2022/10/08 18:09:17;;;;;;;7.97;2.10;;;16.70;90.50;;;;;;5075296;28;20096;-91
2022/10/08 18:11:46;;;;;;;10.57;2.28;;;16.70;90.30;;;;;;5064897;28;20036;-89
2022/10/08 18:14:12;;;;;;;12.55;2.50;;;16.70;90.40;;;;;;5073036;28;20035;-89
2022/10/08 18:16:38;;;;;;;8.80;2.50;;;16.70;90.50;;;;;;5072737;28;20131;-90
2022/10/08 18:19:04;;;;;;;8.77;2.67;;;16.60;90.50;;;;;;5072938;28;20020;-89
2022/10/08 18:21:30;;;;;;;9.45;2.60;;;16.60;90.50;;;;;;5056009;28;20101;-89
2022/10/08 18:23:57;;;;;;;8.95;2.53;;;16.60;90.80;;;;;;5055843;28;20036;-89
2022/10/08 18:26:25;;;;;;;8.57;2.45;;;16.60;90.50;;;;;;5072567;28;20028;-90
2022/10/08 18:28:57;;;;;;;8.07;2.13;;;16.50;90.50;;;;;;5072279;28;20410;-89
2022/10/08 18:31:26;;;;;;;7.47;2.17;;;16.50;90.50;;;;;;5071927;28;20384;-90
2022/10/08 18:33:55;;;;;;;10.10;2.17;;;16.40;90.40;;;;;;5090617;28;20024;-89
2022/10/08 18:36:23;;;;;;;6.50;1.75;;;16.40;90.50;;;;;;5072571;28;20055;-90
2022/10/08 18:38:54;;;;;;;8.27;2.10;;;16.40;90.60;;;;;;5090539;28;20047;-90
2022/10/08 18:41:21;;;;;;;;;;;16.30;90.70;;;;;;5067058;28;20040;-89
2022/10/08 18:43:48;;;;;;;9.68;2.10;;;16.30;90.80;;;;;;5076728;28;19909;-88
2022/10/08 18:46:15;;;;;;;10.40;2.47;;;16.20;90.90;;;;;;5058528;28;20027;-88
2022/10/08 18:48:41;;;;;;;17.25;4.00;;;16.20;91.00;;;;;;5058137;28;20075;-87
2022/10/08 18:51:10;;;;;;;7.78;3.05;;;16.10;91.00;;;;;;5058707;28;20056;-88
2022/10/08 18:53:38;;;;;;;10.35;3.15;;;16.10;91.10;;;;;;5058701;28;20062;-88
2022/10/08 18:56:07;;;;;;;11.43;3.25;;;16.00;91.20;;;;;;5058927;28;20065;-88
2022/10/08 18:58:33;;;;;;;8.75;2.85;;;16.00;91.30;;;;;;5076668;28;20029;-88
2022/10/08 19:01:00;;;;;;;8.48;2.72;;;15.90;91.40;;;;;;5076846;28;20029;-88
2022/10/08 19:03:25;;;;;;;7.45;2.47;;;15.90;91.50;;;;;;5077632;28;20035;-87
2022/10/08 19:05:51;;;;;;;10.38;3.20;;;15.90;91.60;;;;;;5063511;28;20475;-87
2022/10/08 19:08:17;;;;;;;9.75;2.35;;;15.80;91.60;;;;;;5042694;28;20090;-88
2022/10/08 19:10:43;;;;;;;6.60;2.28;;;15.80;91.70;;;;;;5059266;28;20432;-87
2022/10/08 19:13:09;;;;;;;7.90;2.78;;;15.70;91.70;;;;;;5060020;28;20028;-88
2022/10/08 19:15:36;;;;;;;9.85;4.20;;;15.60;91.70;;;;;;5058841;28;20081;-87
2022/10/08 19:18:03;;;;;;;10.93;4.00;;;15.60;91.80;;;;;;5058537;28;20024;-86
2022/10/08 19:20:29;;;;;;;10.80;3.40;;;15.60;91.90;;;;;;5057984;28;20527;-87
2022/10/08 19:22:55;;;;;;;10.02;3.35;;;15.50;91.90;;;;;;5024827;28;20119;-87
2022/10/08 19:25:20;;;;;;;9.02;3.22;;;15.50;91.90;;;;;;5042640;28;20055;-88
2022/10/08 19:27:46;;;;;;;8.98;3.22;;;15.40;92.00;;;;;;5042665;28;20078;-88
2022/10/08 19:30:14;;;;;;;11.27;4.00;;;15.40;92.00;;;;;;5059028;28;20055;-86
2022/10/08 19:32:43;;;;;;;9.20;3.78;;;15.40;92.00;;;;;;5058025;28;20097;-87
2022/10/08 19:35:09;;;;;;;13.38;5.03;;;15.30;92.00;;;;;;5058156;28;20113;-87
2022/10/08 19:37:35;;;;;;;10.52;5.32;;;15.30;92.00;;;;;;5041599;28;20460;-89
2022/10/08 19:40:01;;;;;;;18.73;6.20;;;15.20;92.00;;;;;;5059325;28;20120;-89
2022/10/08 19:42:27;;;;;;;15.15;6.47;;;15.10;92.10;;;;;;5024704;28;20032;-88
2022/10/08 19:44:53;;;;;;;11.38;5.90;;;15.20;92.30;;;;;;5057786;28;20028;-88
2022/10/08 19:47:21;;;;;;;11.02;6.03;;;15.10;92.40;;;;;;5041361;28;20051;-95
2022/10/08 19:49:47;;;;;;;17.33;7.00;;;15.10;92.50;;;;;;5080416;28;20164;-94
2022/10/08 19:52:13;;;;;;;13.27;7.45;;;15.00;92.60;;;;;;5058387;28;20034;-93
2022/10/08 19:54:38;;;;;;;17.95;7.95;;;15.00;92.70;;;;;;5042092;28;20155;-89
2022/10/08 19:57:04;;;;;;;14.70;7.43;;;14.90;92.70;;;;;;5024673;28;20024;-91
2022/10/08 19:59:30;;;;;;;14.52;7.28;;;14.90;92.70;;;;;;5040764;28;20032;-90
2022/10/08 20:01:58;;;;;;;13.45;7.18;;;14.90;92.60;;;;;;5041227;28;20123;-91
2022/10/08 20:04:24;;;;;;;12.23;7.35;;;14.80;92.60;;;;;;5040546;28;20021;-88
2022/10/08 20:06:50;;;;;;;14.05;6.75;;;14.80;92.60;;;;;;5056694;28;20058;-90
2022/10/08 20:09:16;;;;;;;14.38;7.93;;;14.70;92.70;;;;;;5040850;28;20029;-88
2022/10/08 20:11:45;;;;;;;17.23;8.55;;;14.70;92.70;;;;;;5057125;28;20425;-90
2022/10/08 20:14:12;;;;;;;15.68;7.80;;;14.60;92.70;;;;;;5057432;28;20048;-90
2022/10/08 20:16:40;;;;;;;13.48;6.95;;;14.60;92.80;;;;;;5057065;28;20032;-92
2022/10/08 20:19:18;;;;;;;15.57;6.97;;;14.60;92.80;;;;;;5075268;28;20063;-90
2022/10/08 20:21:45;;;;;;;13.90;6.80;;;14.50;92.80;;;;;;5058258;28;20025;-90
2022/10/08 20:24:12;;;;;;;12.48;6.47;;;14.40;92.90;;;;;;5075465;28;20078;-90
2022/10/08 20:26:39;;;;;;;13.27;6.20;;;14.40;93.00;;;;;;5058807;28;20521;-90
2022/10/08 20:29:08;;;;;;;14.45;6.70;;;14.40;93.10;;;;;;5058377;28;20070;-90
2022/10/08 20:31:36;;;;;;;15.25;6.97;;;14.40;93.20;;;;;;5057119;28;20040;-89
2022/10/08 20:34:05;;;;;;;12.18;7.22;;;14.30;93.20;;;;;;5056916;28;20035;-89
2022/10/08 20:36:32;;;;;;;13.73;6.80;;;14.30;93.30;;;;;;5056879;28;20116;-88
2022/10/08 20:38:58;;;;;;;13.48;7.18;;;14.20;93.50;;;;;;5040576;28;20507;-88
2022/10/08 20:41:24;;;;;;;13.13;6.85;;;14.20;93.30;;;;;;5040625;28;20024;-88
2022/10/08 20:43:51;;;;;;;13.13;6.78;;;14.20;93.30;;;;;;5056482;28;20031;-88
2022/10/08 20:46:18;;;;;;;12.75;7.18;;;14.10;93.40;;;;;;5074278;28;20052;-88
2022/10/08 20:48:46;;;;;;;18.35;7.95;;;14.10;93.40;;;;;;5058157;28;20448;-90
2022/10/08 20:51:18;;;;;;;14.90;7.00;;;14.00;93.50;;;;;;5057282;28;20036;-90
2022/10/08 20:53:53;;;;;;;12.63;6.90;;;14.00;93.50;;;;;;5056831;28;20024;-90
2022/10/08 20:56:20;;;;;;;12.93;6.70;;;14.00;93.60;;;;;;5056974;28;20143;-90
2022/10/08 20:58:46;;;;;;;13.77;7.07;;;13.90;93.70;;;;;;5075760;28;20123;-89
2022/10/08 21:01:15;;;;;;;14.27;6.55;;;13.90;93.80;;;;;;5056920;28;20032;-89
2022/10/08 21:03:45;;;;;;;9.98;6.25;;;13.90;93.90;;;;;;5074345;28;20024;-90
2022/10/08 21:06:13;;;;;;;11.68;6.20;;;13.80;94.20;;;;;;5057347;28;20032;-91
2022/10/08 21:08:42;;;;;;;11.45;5.97;;;13.80;93.90;;;;;;5057004;28;20108;-91
2022/10/08 21:11:10;;;;;;;13.93;6.00;;;13.80;93.90;;;;;;5056705;28;20102;-89
2022/10/08 21:13:36;;;;;;;12.27;6.28;;;13.70;93.80;;;;;;5056518;28;20029;-88
2022/10/08 21:16:08;;;;;;;13.45;6.63;;;13.70;93.90;;;;;;5040122;28;20035;-89
2022/10/08 21:18:35;;;;;;;16.52;6.88;;;13.70;94.00;;;;;;5056634;28;20025;-89
2022/10/08 21:21:10;;;;;;;14.30;6.85;;;13.70;94.00;;;;;;5039734;28;20040;-93
2022/10/08 21:23:37;;;;;;;12.10;6.93;;;13.60;94.00;;;;;;5056537;28;20028;-90
2022/10/08 21:26:13;;;;;;;12.18;6.28;;;13.50;94.10;;;;;;5055884;28;20112;-89
2022/10/08 21:28:40;;;;;;;14.60;6.00;;;13.50;94.20;;;;;;5056349;28;20028;-88
2022/10/08 21:31:07;;;;;;;11.25;6.00;;;13.50;94.20;;;;;;5055123;28;20061;-88
2022/10/08 21:33:41;;;;;;;11.07;6.15;;;13.50;94.20;;;;;;5075019;28;20071;-93
2022/10/08 21:36:10;;;;;;;12.63;6.35;;;13.40;94.20;;;;;;5065394;28;20025;-94
2022/10/08 21:38:35;;;;;;;11.07;5.55;;;13.40;94.20;;;;;;5061922;28;20453;-89
2022/10/08 21:41:10;;;;;;;9.88;5.30;;;13.30;94.10;;;;;;5057330;28;20040;-89
2022/10/08 21:43:40;;;;;;;9.70;5.68;;;13.30;94.10;;;;;;5056703;28;20020;-88
2022/10/08 21:46:06;;;;;;;9.10;4.78;;;13.30;94.30;;;;;;5040990;28;20051;-89
2022/10/08 21:48:32;;;;;;;9.40;4.90;;;13.20;94.30;;;;;;5040468;28;20029;-89
2022/10/08 21:50:58;;;;;;;10.27;4.63;;;13.20;94.40;;;;;;5024322;28;20058;-89
2022/10/08 21:53:26;;;;;;;9.90;4.60;;;13.20;94.50;;;;;;5057093;28;20025;-90
2022/10/08 21:55:59;;;;;;;8.50;4.55;;;13.10;94.50;;;;;;5057021;28;20082;-90
2022/10/08 21:58:26;;;;;;;9.57;4.63;;;13.10;94.50;;;;;;5057864;28;20083;-89
2022/10/08 22:00:53;;;;;;;8.68;5.10;;;13.00;94.60;;;;;;5075464;28;20047;-89
2022/10/08 22:03:19;;;;;;;10.77;4.82;;;13.00;94.60;;;;;;5075655;28;20087;-89
2022/10/08 22:06:00;;;;;;;10.05;4.80;;;13.00;94.70;;;;;;5041204;28;20107;-89
2022/10/08 22:08:29;;;;;;;6.60;4.22;;;12.90;94.80;;;;;;5074887;28;20079;-89
2022/10/08 22:10:55;;;;;;;6.63;3.83;;;12.90;94.90;;;;;;5056671;28;20457;-89
2022/10/08 22:13:22;;;;;;;5.10;2.60;;;12.90;94.90;;;;;;5055799;28;20044;-89
2022/10/08 22:15:54;;;;;;;4.32;2.90;;;12.90;95.00;;;;;;5055959;28;20028;-89
2022/10/08 22:18:21;;;;;;;5.90;2.80;;;12.80;95.10;;;;;;5077475;28;20043;-89
2022/10/08 22:20:47;;;;;;;5.05;3.25;;;12.80;95.10;;;;;;5028019;28;20036;-88
2022/10/08 22:23:14;;;;;;;6.47;2.90;;;12.80;95.00;;;;;;5059992;28;20425;-89
2022/10/08 22:25:39;;;;;;;5.82;3.08;;;12.70;95.00;;;;;;5059801;28;20036;-89
2022/10/08 22:28:06;;;;;;;8.45;2.95;;;12.70;95.10;;;;;;5042815;28;20020;-89
2022/10/08 22:30:35;;;;;;;6.50;3.20;;;12.60;95.10;;;;;;5059336;28;20056;-89
2022/10/08 22:33:02;;;;;;;8.32;4.07;;;12.60;95.20;;;;;;5059128;28;20472;-89
2022/10/08 22:35:31;;;;;;;7.32;3.30;;;12.60;95.30;;;;;;5059581;28;20478;-89
2022/10/08 22:37:56;;;;;;;5.35;3.20;;;12.60;95.50;;;;;;5043019;28;20436;-90
2022/10/08 22:40:22;;;;;;;8.45;3.30;;;12.50;95.50;;;;;;5059737;28;20112;-89
2022/10/08 22:42:47;;;;;;;9.02;3.60;;;12.50;95.60;;;;;;5059545;28;20041;-89
2022/10/08 22:45:13;;;;;;;7.63;3.80;;;12.50;95.70;;;;;;5026050;28;20115;-89
2022/10/08 22:47:39;;;;;;;10.63;4.10;;;12.50;95.70;;;;;;5026212;28;20379;-89
2022/10/08 22:50:05;;;;;;;11.20;4.70;;;12.50;95.70;;;;;;5076749;28;20036;-89
2022/10/08 22:52:30;;;;;;;10.00;4.50;;;12.40;95.80;;;;;;5059160;28;20029;-89
2022/10/08 22:54:56;;;;;;;9.65;4.40;;;12.40;95.80;;;;;;5042270;28;20035;-94
2022/10/08 22:57:22;;;;;;;13.27;4.45;;;12.40;95.80;;;;;;5026382;28;20025;-89
2022/10/08 22:59:47;;;;;;;10.13;4.65;;;12.40;95.80;;;;;;5025651;28;20503;-90
2022/10/08 23:02:13;;;;;;;10.23;4.20;;;12.40;95.80;;;;;;5025790;28;20028;-89
2022/10/08 23:04:39;;;;;;;9.88;4.47;;;12.30;95.70;;;;;;5042533;28;20028;-89
2022/10/08 23:07:05;;;;;;;9.60;4.13;;;12.30;95.80;;;;;;5042319;28;20048;-90
2022/10/08 23:09:31;;;;;;;7.60;4.18;;;12.30;95.80;;;;;;5025450;28;20060;-89
2022/10/08 23:11:56;;;;;;;9.38;4.05;;;12.30;95.90;;;;;;5042475;28;20028;-89
2022/10/08 23:14:22;;;;;;;10.23;4.55;;;12.30;96.00;;;;;;5058175;28;20119;-89
2022/10/08 23:16:47;;;;;;;8.68;4.35;;;12.20;96.10;;;;;;5058821;28;20119;-88
2022/10/08 23:19:14;;;;;;;10.40;4.30;;;12.20;96.10;;;;;;5041578;28;20375;-89
2022/10/08 23:21:39;;;;;;;10.23;4.30;;;12.20;96.10;;;;;;5076633;28;20033;-89
2022/10/08 23:24:05;;;;;;;9.38;4.05;;;12.10;96.10;;;;;;5042070;28;20035;-88
2022/10/08 23:26:31;;;;;;;9.88;4.18;;;12.10;96.10;;;;;;5042549;28;20020;-89
2022/10/08 23:28:58;;;;;;;9.65;4.68;;;12.10;96.10;;;;;;5041953;28;20033;-89
2022/10/08 23:31:29;;;;;;;15.55;4.90;;;12.10;96.10;;;;;;5057932;28;20055;-90
2022/10/08 23:33:56;;;;;;;11.13;4.53;;;12.00;96.10;;;;;;5076370;28;20024;-89
2022/10/08 23:36:33;;;;;;;9.40;4.63;;;12.00;96.20;;;;;;5058317;28;20036;-89
2022/10/08 23:38:59;;;;;;;8.95;4.65;;;11.90;96.20;;;;;;5075806;28;20035;-89
2022/10/08 23:41:25;;;;;;;9.95;5.15;;;11.90;96.20;;;;;;5041053;28;20483;-89
2022/10/08 23:43:52;;;;;;;8.68;4.50;;;11.90;96.30;;;;;;5058042;28;20478;-89
2022/10/08 23:46:21;;;;;;;10.43;4.53;;;11.90;96.30;;;;;;5057993;28;20028;-89
2022/10/08 23:48:47;;;;;;;10.20;4.68;;;11.90;96.20;;;;;;5076068;28;20095;-89
2022/10/08 23:51:13;;;;;;;11.50;4.88;;;11.80;96.20;;;;;;5058085;28;20062;-89
2022/10/08 23:53:40;;;;;;;6.78;3.83;;;11.80;96.30;;;;;;5075808;28;20028;-89
2022/10/08 23:56:07;;;;;;;10.10;4.93;;;11.80;96.20;;;;;;5041371;28;20055;-90
2022/10/08 23:58:34;;;;;;;9.45;4.35;;;11.70;96.20;;;;;;5041339;28;20111;-89
